createdAt,value
2023-01-29T00:00:14.817Z,100457.00
2023-01-29T00:01:14.404Z,100461.00
2023-01-29T00:02:14.533Z,100471.00
2023-01-29T00:03:14.541Z,100475.00
2023-01-29T00:04:14.482Z,100477.00
2023-01-29T00:05:27.098Z,100482.00
2023-01-29T00:06:14.504Z,100480.00
2023-01-29T00:07:14.521Z,100477.00
2023-01-29T00:08:14.547Z,100469.00
2023-01-29T00:09:14.597Z,100478.00
2023-01-29T00:10:15.129Z,100479.00
2023-01-29T00:11:14.576Z,100477.00
2023-01-29T00:12:14.627Z,100480.00
2023-01-29T00:13:14.603Z,100483.00
2023-01-29T00:14:14.639Z,100481.00
2023-01-29T00:15:14.628Z,100485.00
2023-01-29T00:16:14.657Z,100481.00
2023-01-29T00:17:14.791Z,100482.00
2023-01-29T00:18:14.648Z,100477.00
2023-01-29T00:19:14.660Z,100481.00
2023-01-29T00:20:15.053Z,100476.00
2023-01-29T00:21:14.705Z,100478.00
2023-01-29T00:22:14.742Z,100482.00
2023-01-29T00:23:14.756Z,100487.00
2023-01-29T00:24:14.877Z,100483.00
2023-01-29T00:25:14.855Z,100484.00
2023-01-29T00:26:14.784Z,100479.00
2023-01-29T00:27:14.809Z,100476.00
2023-01-29T00:28:14.844Z,100475.00
2023-01-29T00:29:14.834Z,100475.00
2023-01-29T00:30:15.423Z,100471.00
2023-01-29T00:31:15.032Z,100462.00
2023-01-29T00:32:15.005Z,100460.00
2023-01-29T00:33:14.874Z,100463.00
2023-01-29T00:34:14.912Z,100462.00
2023-01-29T00:35:14.887Z,100464.00
2023-01-29T00:36:14.924Z,100463.00
2023-01-29T00:37:14.902Z,100459.00
2023-01-29T00:38:14.923Z,100451.00
2023-01-29T00:39:14.945Z,100452.00
2023-01-29T00:40:15.534Z,100450.00
2023-01-29T00:41:14.969Z,100447.00
2023-01-29T00:42:14.937Z,100453.00
2023-01-29T00:43:14.971Z,100447.00
2023-01-29T00:44:14.981Z,100448.00
2023-01-29T00:45:15.018Z,100451.00
2023-01-29T00:46:15.095Z,100447.00
2023-01-29T00:47:15.023Z,100449.00
2023-01-29T00:48:15.046Z,100451.00
2023-01-29T00:49:15.063Z,100458.00
2023-01-29T00:50:15.433Z,100450.00
2023-01-29T00:51:15.113Z,100449.00
2023-01-29T00:52:15.122Z,100449.00
2023-01-29T00:53:15.163Z,100450.00
2023-01-29T00:54:15.135Z,100447.00
2023-01-29T00:55:15.141Z,100449.00
2023-01-29T00:56:15.162Z,100447.00
2023-01-29T00:57:15.190Z,100446.00
2023-01-29T00:58:15.163Z,100443.00
2023-01-29T00:59:15.204Z,100444.00
2023-01-29T01:00:15.629Z,100448.00
2023-01-29T01:01:15.273Z,100444.00
2023-01-29T01:02:15.340Z,100445.00
2023-01-29T01:03:15.221Z,100441.00
2023-01-29T01:04:15.269Z,100447.00
2023-01-29T01:05:15.257Z,100445.00
2023-01-29T01:06:15.283Z,100441.00
2023-01-29T01:07:15.313Z,100445.00
2023-01-29T01:08:15.281Z,100448.00
2023-01-29T01:09:15.306Z,100444.00
2023-01-29T01:10:15.732Z,100446.00
2023-01-29T01:11:15.542Z,100445.00
2023-01-29T01:12:15.312Z,100446.00
2023-01-29T01:13:15.316Z,100441.00
2023-01-29T01:14:15.293Z,100441.00
2023-01-29T01:15:15.310Z,100440.00
2023-01-29T01:16:15.345Z,100434.00
2023-01-29T01:17:15.322Z,100440.00
2023-01-29T01:18:15.350Z,100438.00
2023-01-29T01:19:15.382Z,100438.00
2023-01-29T01:20:15.757Z,100436.00
2023-01-29T01:21:15.378Z,100440.00
2023-01-29T01:22:15.405Z,100446.00
2023-01-29T01:23:15.430Z,100445.00
2023-01-29T01:24:15.545Z,100453.00
2023-01-29T01:25:15.471Z,100453.00
2023-01-29T01:26:15.486Z,100448.00
2023-01-29T01:27:15.528Z,100446.00
2023-01-29T01:28:15.502Z,100446.00
2023-01-29T01:29:15.569Z,100441.00
2023-01-29T01:30:16.110Z,100443.00
2023-01-29T01:31:15.730Z,100441.00
2023-01-29T01:32:15.578Z,100438.00
2023-01-29T01:33:15.605Z,100435.00
2023-01-29T01:34:15.638Z,100441.00
2023-01-29T01:35:15.657Z,100438.00
2023-01-29T01:36:15.675Z,100435.00
2023-01-29T01:37:15.689Z,100436.00
2023-01-29T01:38:15.701Z,100441.00
2023-01-29T01:39:15.690Z,100445.00
2023-01-29T01:40:16.061Z,100444.00
2023-01-29T01:41:15.711Z,100443.00
2023-01-29T01:42:15.689Z,100446.00
2023-01-29T01:43:15.710Z,100443.00
2023-01-29T01:44:15.701Z,100443.00
2023-01-29T01:45:15.741Z,100438.00
2023-01-29T01:46:15.704Z,100436.00
2023-01-29T01:47:15.720Z,100434.00
2023-01-29T01:48:15.731Z,100436.00
2023-01-29T01:49:15.765Z,100435.00
2023-01-29T01:50:16.197Z,100435.00
2023-01-29T01:51:15.805Z,100432.00
2023-01-29T01:52:15.818Z,100429.00
2023-01-29T01:53:15.802Z,100430.00
2023-01-29T01:54:15.827Z,100432.00
2023-01-29T01:55:15.809Z,100429.00
2023-01-29T01:56:15.843Z,100435.00
2023-01-29T01:57:15.859Z,100439.00
2023-01-29T01:58:15.880Z,100432.00
2023-01-29T01:59:15.908Z,100435.00
2023-01-29T02:00:16.254Z,100436.00
2023-01-29T02:01:16.053Z,100431.00
2023-01-29T02:02:16.009Z,100432.00
2023-01-29T02:03:15.988Z,100427.00
2023-01-29T02:04:16.003Z,100426.00
2023-01-29T02:05:16.049Z,100426.00
2023-01-29T02:06:16.042Z,100427.00
2023-01-29T02:07:16.018Z,100432.00
2023-01-29T02:08:16.032Z,100433.00
2023-01-29T02:09:16.054Z,100433.00
2023-01-29T02:10:16.453Z,100431.00
2023-01-29T02:11:16.079Z,100431.00
2023-01-29T02:12:16.110Z,100430.00
2023-01-29T02:13:16.092Z,100430.00
2023-01-29T02:14:16.119Z,100431.00
2023-01-29T02:15:16.096Z,100434.00
2023-01-29T02:16:16.096Z,100430.00
2023-01-29T02:17:16.201Z,100430.00
2023-01-29T02:18:16.148Z,100432.00
2023-01-29T02:19:16.167Z,100427.00
2023-01-29T02:20:16.550Z,100429.00
2023-01-29T02:21:16.189Z,100425.00
2023-01-29T02:22:16.166Z,100430.00
2023-01-29T02:23:16.199Z,100424.00
2023-01-29T02:24:16.394Z,100429.00
2023-01-29T02:25:16.179Z,100424.00
2023-01-29T02:26:16.182Z,100422.00
2023-01-29T02:27:16.192Z,100421.00
2023-01-29T02:28:16.222Z,100420.00
2023-01-29T02:29:16.253Z,100420.00
2023-01-29T02:30:16.720Z,100414.00
2023-01-29T02:31:16.379Z,100414.00
2023-01-29T02:32:16.300Z,100412.00
2023-01-29T02:33:16.346Z,100411.00
2023-01-29T02:34:16.314Z,100408.00
2023-01-29T02:35:16.326Z,100403.00
2023-01-29T02:36:16.361Z,100406.00
2023-01-29T02:37:16.334Z,100410.00
2023-01-29T02:38:16.345Z,100407.00
2023-01-29T02:39:16.390Z,100406.00
2023-01-29T02:40:16.666Z,100405.00
2023-01-29T02:41:16.372Z,100402.00
2023-01-29T02:42:16.357Z,100405.00
2023-01-29T02:43:16.374Z,100401.00
2023-01-29T02:44:16.420Z,100397.00
2023-01-29T02:45:16.396Z,100402.00
2023-01-29T02:46:16.521Z,100397.00
2023-01-29T02:47:16.401Z,100399.00
2023-01-29T02:48:16.422Z,100396.00
2023-01-29T02:49:16.471Z,100400.00
2023-01-29T02:50:16.833Z,100398.00
2023-01-29T02:51:16.485Z,100399.00
2023-01-29T02:52:16.499Z,100400.00
2023-01-29T02:53:16.511Z,100405.00
2023-01-29T02:54:16.536Z,100405.00
2023-01-29T02:55:16.565Z,100405.00
2023-01-29T02:56:16.616Z,100404.00
2023-01-29T02:57:16.590Z,100402.00
2023-01-29T02:58:16.611Z,100401.00
2023-01-29T02:59:16.627Z,100398.00
2023-01-29T03:00:16.908Z,100400.00
2023-01-29T03:01:16.743Z,100398.00
2023-01-29T03:02:16.752Z,100400.00
2023-01-29T03:03:16.680Z,100401.00
2023-01-29T03:04:16.704Z,100401.00
2023-01-29T03:05:16.754Z,100401.00
2023-01-29T03:06:16.715Z,100404.00
2023-01-29T03:07:16.736Z,100403.00
2023-01-29T03:08:16.763Z,100408.00
2023-01-29T03:09:16.785Z,100410.00
2023-01-29T03:10:17.129Z,100406.00
2023-01-29T03:11:16.756Z,100410.00
2023-01-29T03:12:19.392Z,100414.00
2023-01-29T03:13:16.790Z,100414.00
2023-01-29T03:14:16.875Z,100414.00
2023-01-29T03:15:16.841Z,100407.00
2023-01-29T03:16:16.872Z,100416.00
2023-01-29T03:17:16.904Z,100418.00
2023-01-29T03:18:16.875Z,100414.00
2023-01-29T03:19:16.900Z,100420.00
2023-01-29T03:20:17.452Z,100421.00
2023-01-29T03:21:16.972Z,100421.00
2023-01-29T03:22:16.946Z,100423.00
2023-01-29T03:23:16.994Z,100423.00
2023-01-29T03:24:17.072Z,100421.00
2023-01-29T03:25:17.006Z,100424.00
2023-01-29T03:26:17.022Z,100426.00
2023-01-29T03:27:17.041Z,100429.00
2023-01-29T03:28:17.078Z,100423.00
2023-01-29T03:29:17.063Z,100430.00
2023-01-29T03:30:17.449Z,100434.00
2023-01-29T03:31:17.251Z,100437.00
2023-01-29T03:32:17.078Z,100443.00
2023-01-29T03:33:17.103Z,100443.00
2023-01-29T03:34:17.121Z,100439.00
2023-01-29T03:35:17.132Z,100438.00
2023-01-29T03:36:17.183Z,100441.00
2023-01-29T03:37:17.185Z,100437.00
2023-01-29T03:38:17.166Z,100433.00
2023-01-29T03:39:17.186Z,100435.00
2023-01-29T03:40:17.641Z,100433.00
2023-01-29T03:41:17.200Z,100432.00
2023-01-29T03:42:17.243Z,100431.00
2023-01-29T03:43:17.214Z,100434.00
2023-01-29T03:44:17.229Z,100442.00
2023-01-29T03:45:17.240Z,100437.00
2023-01-29T03:46:17.255Z,100443.00
2023-01-29T03:47:17.298Z,100446.00
2023-01-29T03:48:17.263Z,100445.00
2023-01-29T03:49:17.278Z,100449.00
2023-01-29T03:50:17.791Z,100450.00
2023-01-29T03:51:17.292Z,100451.00
2023-01-29T03:52:17.307Z,100453.00
2023-01-29T03:53:17.377Z,100447.00
2023-01-29T03:54:17.358Z,100445.00
2023-01-29T03:55:17.363Z,100451.00
2023-01-29T03:56:17.373Z,100450.00
2023-01-29T03:57:17.399Z,100447.00
2023-01-29T03:58:17.367Z,100455.00
2023-01-29T03:59:17.388Z,100457.00
2023-01-29T04:00:17.778Z,100455.00
2023-01-29T04:01:17.403Z,100449.00
2023-01-29T04:02:17.364Z,100450.00
2023-01-29T04:03:17.380Z,100449.00
2023-01-29T04:04:17.429Z,100445.00
2023-01-29T04:05:17.445Z,100448.00
2023-01-29T04:06:17.427Z,100453.00
2023-01-29T04:07:17.392Z,100452.00
2023-01-29T04:08:17.384Z,100450.00
2023-01-29T04:09:17.422Z,100458.00
2023-01-29T04:10:17.731Z,100462.00
2023-01-29T04:11:17.434Z,100462.00
2023-01-29T04:12:17.439Z,100461.00
2023-01-29T04:13:17.472Z,100462.00
2023-01-29T04:14:17.491Z,100461.00
2023-01-29T04:15:17.524Z,100463.00
2023-01-29T04:16:17.601Z,100457.00
2023-01-29T04:17:17.531Z,100454.00
2023-01-29T04:18:17.550Z,100453.00
2023-01-29T04:19:17.569Z,100452.00
2023-01-29T04:20:18.093Z,100451.00
2023-01-29T04:21:17.580Z,100448.00
2023-01-29T04:22:17.593Z,100448.00
2023-01-29T04:23:17.621Z,100445.00
2023-01-29T04:24:17.712Z,100445.00
2023-01-29T04:25:17.669Z,100439.00
2023-01-29T04:26:17.691Z,100440.00
2023-01-29T04:27:17.744Z,100441.00
2023-01-29T04:28:17.737Z,100440.00
2023-01-29T04:29:17.755Z,100442.00
2023-01-29T04:30:18.095Z,100440.00
2023-01-29T04:31:17.815Z,100441.00
2023-01-29T04:32:17.782Z,100438.00
2023-01-29T04:33:17.806Z,100443.00
2023-01-29T04:34:17.841Z,100441.00
2023-01-29T04:35:17.816Z,100442.00
2023-01-29T04:36:17.848Z,100439.00
2023-01-29T04:37:17.864Z,100440.00
2023-01-29T04:38:17.884Z,100437.00
2023-01-29T04:39:17.901Z,100437.00
2023-01-29T04:40:18.270Z,100438.00
2023-01-29T04:41:17.918Z,100436.00
2023-01-29T04:42:17.937Z,100432.00
2023-01-29T04:43:17.942Z,100430.00
2023-01-29T04:44:17.980Z,100429.00
2023-01-29T04:45:17.989Z,100423.00
2023-01-29T04:46:18.020Z,100416.00
2023-01-29T04:47:18.100Z,100417.00
2023-01-29T04:48:18.053Z,100415.00
2023-01-29T04:49:18.081Z,100413.00
2023-01-29T04:50:18.531Z,100414.00
2023-01-29T04:51:18.092Z,100413.00
2023-01-29T04:52:18.102Z,100411.00
2023-01-29T04:53:18.119Z,100411.00
2023-01-29T04:54:18.151Z,100410.00
2023-01-29T04:55:18.173Z,100408.00
2023-01-29T04:56:18.189Z,100407.00
2023-01-29T04:57:18.206Z,100405.00
2023-01-29T04:58:18.217Z,100405.00
2023-01-29T04:59:18.248Z,100404.00
2023-01-29T05:00:18.600Z,100397.00
2023-01-29T05:01:18.304Z,100406.00
2023-01-29T05:02:18.212Z,100406.00
2023-01-29T05:03:18.239Z,100397.00
2023-01-29T05:04:18.291Z,100389.00
2023-01-29T05:05:18.279Z,100385.00
2023-01-29T05:06:18.326Z,100383.00
2023-01-29T05:07:18.321Z,100376.00
2023-01-29T05:08:18.332Z,100379.00
2023-01-29T05:09:18.384Z,100378.00
2023-01-29T05:10:18.869Z,100374.00
2023-01-29T05:11:18.369Z,100373.00
2023-01-29T05:12:18.402Z,100374.00
2023-01-29T05:13:18.416Z,100373.00
2023-01-29T05:14:18.489Z,100376.00
2023-01-29T05:15:18.470Z,100379.00
2023-01-29T05:16:18.561Z,100382.00
2023-01-29T05:17:18.504Z,100383.00
2023-01-29T05:18:18.531Z,100388.00
2023-01-29T05:19:18.564Z,100381.00
2023-01-29T05:20:18.934Z,100383.00
2023-01-29T05:21:18.595Z,100384.00
2023-01-29T05:22:18.609Z,100384.00
2023-01-29T05:23:18.637Z,100388.00
2023-01-29T05:24:18.717Z,100386.00
2023-01-29T05:25:18.652Z,100388.00
2023-01-29T05:26:18.675Z,100388.00
2023-01-29T05:27:18.693Z,100387.00
2023-01-29T05:28:18.718Z,100385.00
2023-01-29T05:29:18.724Z,100382.00
2023-01-29T05:30:18.956Z,100384.00
2023-01-29T05:31:18.889Z,100382.00
2023-01-29T05:32:18.753Z,100387.00
2023-01-29T05:33:18.778Z,100389.00
2023-01-29T05:34:18.797Z,100390.00
2023-01-29T05:35:18.817Z,100392.00
2023-01-29T05:36:18.836Z,100389.00
2023-01-29T05:37:18.849Z,100387.00
2023-01-29T05:38:18.880Z,100390.00
2023-01-29T05:39:18.925Z,100385.00
2023-01-29T05:40:19.176Z,100385.00
2023-01-29T05:41:18.883Z,100382.00
2023-01-29T05:42:18.913Z,100387.00
2023-01-29T05:43:18.927Z,100384.00
2023-01-29T05:44:18.978Z,100385.00
2023-01-29T05:45:18.945Z,100389.00
2023-01-29T05:46:19.015Z,100391.00
2023-01-29T05:47:19.014Z,100392.00
2023-01-29T05:48:18.984Z,100394.00
2023-01-29T05:49:19.025Z,100395.00
2023-01-29T05:50:19.213Z,100396.00
2023-01-29T05:51:19.003Z,100400.00
2023-01-29T05:52:19.007Z,100406.00
2023-01-29T05:53:19.047Z,100405.00
2023-01-29T05:54:19.080Z,100405.00
2023-01-29T05:55:19.057Z,100409.00
2023-01-29T05:56:19.086Z,100408.00
2023-01-29T05:57:19.109Z,100412.00
2023-01-29T05:58:19.131Z,100413.00
2023-01-29T05:59:19.176Z,100414.00
2023-01-29T06:00:19.207Z,100412.00
2023-01-29T06:01:19.189Z,100409.00
2023-01-29T06:02:19.200Z,100407.00
2023-01-29T06:03:19.243Z,100399.00
2023-01-29T06:04:19.236Z,100409.00
2023-01-29T06:05:19.247Z,100408.00
2023-01-29T06:06:19.273Z,100411.00
2023-01-29T06:07:19.284Z,100409.00
2023-01-29T06:08:19.312Z,100410.00
2023-01-29T06:09:19.301Z,100406.00
2023-01-29T06:10:19.637Z,100412.00
2023-01-29T06:11:19.323Z,100413.00
2023-01-29T06:12:19.343Z,100418.00
2023-01-29T06:13:19.360Z,100416.00
2023-01-29T06:14:19.384Z,100420.00
2023-01-29T06:15:19.407Z,100418.00
2023-01-29T06:16:19.573Z,100426.00
2023-01-29T06:17:19.462Z,100425.00
2023-01-29T06:18:19.486Z,100428.00
2023-01-29T06:19:19.514Z,100427.00
2023-01-29T06:20:19.744Z,100425.00
2023-01-29T06:21:20.223Z,100426.00
2023-01-29T06:22:19.522Z,100423.00
2023-01-29T06:23:19.551Z,100419.00
2023-01-29T06:24:19.589Z,100424.00
2023-01-29T06:25:19.578Z,100424.00
2023-01-29T06:26:19.565Z,100426.00
2023-01-29T06:27:19.579Z,100433.00
2023-01-29T06:28:19.604Z,100436.00
2023-01-29T06:29:19.579Z,100430.00
2023-01-29T06:30:19.956Z,100431.00
2023-01-29T06:31:36.841Z,100427.00
2023-01-29T06:32:19.691Z,100421.00
2023-01-29T06:33:19.613Z,100423.00
2023-01-29T06:34:19.636Z,100418.00
2023-01-29T06:35:19.653Z,100420.00
2023-01-29T06:36:19.663Z,100421.00
2023-01-29T06:37:19.678Z,100418.00
2023-01-29T06:38:19.693Z,100423.00
2023-01-29T06:39:19.712Z,100426.00
2023-01-29T06:40:19.812Z,100421.00
2023-01-29T06:41:19.771Z,100420.00
2023-01-29T06:42:19.760Z,100423.00
2023-01-29T06:43:19.782Z,100417.00
2023-01-29T06:44:19.806Z,100415.00
2023-01-29T06:45:19.844Z,100412.00
2023-01-29T06:46:19.822Z,100409.00
2023-01-29T06:47:19.804Z,100409.00
2023-01-29T06:48:19.814Z,100402.00
2023-01-29T06:49:19.831Z,100404.00
2023-01-29T06:50:19.861Z,100403.00
2023-01-29T06:51:19.866Z,100403.00
2023-01-29T06:52:19.879Z,100405.00
2023-01-29T06:53:19.912Z,100408.00
2023-01-29T06:54:19.925Z,100410.00
2023-01-29T06:55:19.940Z,100407.00
2023-01-29T06:56:19.961Z,100407.00
2023-01-29T06:57:19.979Z,100406.00
2023-01-29T06:58:19.990Z,100407.00
2023-01-29T06:59:20.007Z,100408.00
2023-01-29T07:00:20.091Z,100409.00
2023-01-29T07:01:34.788Z,100409.00
2023-01-29T07:02:20.083Z,100408.00
2023-01-29T07:03:20.089Z,100413.00
2023-01-29T07:04:20.106Z,100415.00
2023-01-29T07:05:20.142Z,100412.00
2023-01-29T07:06:20.175Z,100412.00
2023-01-29T07:07:20.153Z,100416.00
2023-01-29T07:08:20.175Z,100418.00
2023-01-29T07:09:20.202Z,100418.00
2023-01-29T07:10:20.191Z,100421.00
2023-01-29T07:11:20.198Z,100415.00
2023-01-29T07:12:20.234Z,100420.00
2023-01-29T07:13:20.252Z,100419.00
2023-01-29T07:14:20.298Z,100421.00
2023-01-29T07:15:20.280Z,100418.00
2023-01-29T07:16:20.337Z,100417.00
2023-01-29T07:17:20.309Z,100418.00
2023-01-29T07:18:20.341Z,100421.00
2023-01-29T07:19:20.339Z,100420.00
2023-01-29T07:20:20.360Z,100425.00
2023-01-29T07:21:20.390Z,100424.00
2023-01-29T07:22:20.406Z,100422.00
2023-01-29T07:23:20.423Z,100427.00
2023-01-29T07:24:20.410Z,100429.00
2023-01-29T07:25:20.431Z,100427.00
2023-01-29T07:26:20.466Z,100426.00
2023-01-29T07:27:20.521Z,100424.00
2023-01-29T07:28:20.512Z,100421.00
2023-01-29T07:29:20.525Z,100419.00
2023-01-29T07:30:20.533Z,100418.00
2023-01-29T07:31:20.762Z,100420.00
2023-01-29T07:32:20.638Z,100418.00
2023-01-29T07:33:20.566Z,100421.00
2023-01-29T07:34:20.618Z,100418.00
2023-01-29T07:35:20.597Z,100417.00
2023-01-29T07:36:20.622Z,100417.00
2023-01-29T07:37:20.640Z,100421.00
2023-01-29T07:38:20.670Z,100419.00
2023-01-29T07:39:20.712Z,100414.00
2023-01-29T07:40:20.692Z,100415.00
2023-01-29T07:41:20.690Z,100411.00
2023-01-29T07:42:20.711Z,100409.00
2023-01-29T07:43:20.746Z,100407.00
2023-01-29T07:44:21.620Z,100409.00
2023-01-29T07:45:20.733Z,100410.00
2023-01-29T07:46:20.724Z,100414.00
2023-01-29T07:47:20.781Z,100419.00
2023-01-29T07:48:20.767Z,100417.00
2023-01-29T07:49:20.800Z,100421.00
2023-01-29T07:50:20.833Z,100418.00
2023-01-29T07:51:20.807Z,100416.00
2023-01-29T07:52:22.397Z,100418.00
2023-01-29T07:53:20.862Z,100418.00
2023-01-29T07:54:20.900Z,100420.00
2023-01-29T07:55:20.921Z,100415.00
2023-01-29T07:56:20.952Z,100413.00
2023-01-29T07:57:20.939Z,100413.00
2023-01-29T07:58:20.955Z,100413.00
2023-01-29T07:59:20.969Z,100413.00
2023-01-29T08:00:21.001Z,100419.00
2023-01-29T08:01:21.094Z,100423.00
2023-01-29T08:02:21.084Z,100423.00
2023-01-29T08:03:21.108Z,100420.00
2023-01-29T08:04:21.085Z,100422.00
2023-01-29T08:05:21.105Z,100422.00
2023-01-29T08:06:21.124Z,100421.00
2023-01-29T08:07:21.121Z,100426.00
2023-01-29T08:08:21.143Z,100430.00
2023-01-29T08:09:21.186Z,100432.00
2023-01-29T08:10:21.163Z,100436.00
2023-01-29T08:11:21.158Z,100435.00
2023-01-29T08:12:21.202Z,100434.00
2023-01-29T08:13:21.203Z,100434.00
2023-01-29T08:14:21.193Z,100436.00
2023-01-29T08:15:21.216Z,100437.00
2023-01-29T08:16:21.292Z,100438.00
2023-01-29T08:17:21.232Z,100438.00
2023-01-29T08:18:21.217Z,100447.00
2023-01-29T08:19:21.205Z,100446.00
2023-01-29T08:20:21.235Z,100450.00
2023-01-29T08:21:21.254Z,100451.00
2023-01-29T08:22:21.211Z,100452.00
2023-01-29T08:23:21.238Z,100459.00
2023-01-29T08:24:21.297Z,100455.00
2023-01-29T08:25:21.426Z,100458.00
2023-01-29T08:26:21.298Z,100461.00
2023-01-29T08:27:21.283Z,100464.00
2023-01-29T08:28:21.324Z,100463.00
2023-01-29T08:29:21.312Z,100466.00
2023-01-29T08:30:21.332Z,100465.00
2023-01-29T08:31:21.371Z,100465.00
2023-01-29T08:32:21.389Z,100468.00
2023-01-29T08:33:29.935Z,100462.00
2023-01-29T08:34:21.418Z,100462.00
2023-01-29T08:35:21.668Z,100463.00
2023-01-29T08:36:21.410Z,100464.00
2023-01-29T08:37:21.439Z,100469.00
2023-01-29T08:38:21.437Z,100473.00
2023-01-29T08:39:21.416Z,100476.00
2023-01-29T08:40:21.455Z,100477.00
2023-01-29T08:41:21.490Z,100479.00
2023-01-29T08:42:21.467Z,100485.00
2023-01-29T08:43:21.498Z,100481.00
2023-01-29T08:44:21.527Z,100485.00
2023-01-29T08:45:21.511Z,100483.00
2023-01-29T08:46:21.591Z,100487.00
2023-01-29T08:47:21.551Z,100485.00
2023-01-29T08:48:21.565Z,100484.00
2023-01-29T08:49:21.590Z,100485.00
2023-01-29T08:50:21.621Z,100483.00
2023-01-29T08:51:21.679Z,100479.00
2023-01-29T08:52:21.663Z,100474.00
2023-01-29T08:53:21.683Z,100475.00
2023-01-29T08:54:21.707Z,100469.00
2023-01-29T08:55:21.696Z,100465.00
2023-01-29T08:56:21.735Z,100460.00
2023-01-29T08:57:21.711Z,100454.00
2023-01-29T08:58:21.738Z,100447.00
2023-01-29T08:59:21.729Z,100435.00
2023-01-29T09:00:21.763Z,100435.00
2023-01-29T09:01:21.818Z,100434.00
2023-01-29T09:02:21.827Z,100434.00
2023-01-29T09:03:21.759Z,100433.00
2023-01-29T09:04:21.789Z,100427.00
2023-01-29T09:05:21.814Z,100430.00
2023-01-29T09:06:21.847Z,100432.00
2023-01-29T09:07:21.900Z,100432.00
2023-01-29T09:08:21.877Z,100431.00
2023-01-29T09:09:21.913Z,100427.00
2023-01-29T09:10:21.927Z,100426.00
2023-01-29T09:11:21.960Z,100421.00
2023-01-29T09:12:21.984Z,100418.00
2023-01-29T09:13:22.000Z,100420.00
2023-01-29T09:14:22.025Z,100414.00
2023-01-29T09:15:22.045Z,100416.00
2023-01-29T09:16:22.106Z,100409.00
2023-01-29T09:17:22.317Z,100418.00
2023-01-29T09:18:22.111Z,100419.00
2023-01-29T09:19:22.139Z,100423.00
2023-01-29T09:20:22.182Z,100420.00
2023-01-29T09:21:22.172Z,100419.00
2023-01-29T09:22:22.195Z,100419.00
2023-01-29T09:23:22.215Z,100425.00
2023-01-29T09:24:22.247Z,100419.00
2023-01-29T09:25:22.269Z,100423.00
2023-01-29T09:26:22.319Z,100425.00
2023-01-29T09:27:22.274Z,100426.00
2023-01-29T09:28:22.293Z,100426.00
2023-01-29T09:29:22.324Z,100429.00
2023-01-29T09:30:22.328Z,100424.00
2023-01-29T09:31:22.427Z,100432.00
2023-01-29T09:32:49.829Z,100429.00
2023-01-29T09:33:22.329Z,100424.00
2023-01-29T09:34:22.315Z,100417.00
2023-01-29T09:35:22.347Z,100422.00
2023-01-29T09:36:22.362Z,100417.00
2023-01-29T09:37:22.389Z,100421.00
2023-01-29T09:38:22.423Z,100418.00
2023-01-29T09:39:22.444Z,100423.00
2023-01-29T09:40:22.519Z,100424.00
2023-01-29T09:41:22.469Z,100428.00
2023-01-29T09:42:22.492Z,100417.00
2023-01-29T09:43:22.524Z,100421.00
2023-01-29T09:44:22.546Z,100425.00
2023-01-29T09:45:22.570Z,100428.00
2023-01-29T09:46:22.656Z,100436.00
2023-01-29T09:47:22.606Z,100438.00
2023-01-29T09:48:22.616Z,100442.00
2023-01-29T09:49:22.592Z,100449.00
2023-01-29T09:50:22.631Z,100452.00
2023-01-29T09:51:22.626Z,100452.00
2023-01-29T09:52:22.608Z,100451.00
2023-01-29T09:53:22.595Z,100457.00
2023-01-29T09:54:22.716Z,100456.00
2023-01-29T09:55:22.572Z,100457.00
2023-01-29T09:56:22.560Z,100465.00
2023-01-29T09:57:22.548Z,100466.00
2023-01-29T09:58:22.547Z,100468.00
2023-01-29T09:59:22.537Z,100472.00
2023-01-29T10:00:22.628Z,100472.00
2023-01-29T10:01:22.614Z,100480.00
2023-01-29T10:02:22.686Z,100478.00
2023-01-29T10:03:22.666Z,100483.00
2023-01-29T10:04:22.650Z,100486.00
2023-01-29T10:05:22.554Z,100489.00
2023-01-29T10:06:22.580Z,100491.00
2023-01-29T10:07:22.615Z,100494.00
2023-01-29T10:08:22.605Z,100498.00
2023-01-29T10:09:22.622Z,100506.00
2023-01-29T10:10:22.602Z,100506.00
2023-01-29T10:11:22.602Z,100512.00
2023-01-29T10:12:22.581Z,100515.00
2023-01-29T10:13:22.603Z,100510.00
2023-01-29T10:14:22.596Z,100506.00
2023-01-29T10:15:22.622Z,100511.00
2023-01-29T10:16:22.621Z,100504.00
2023-01-29T10:17:22.646Z,100498.00
2023-01-29T10:18:22.671Z,100495.00
2023-01-29T10:19:22.624Z,100491.00
2023-01-29T10:20:22.607Z,100485.00
2023-01-29T10:21:22.606Z,100475.00
2023-01-29T10:22:22.595Z,100474.00
2023-01-29T10:23:22.614Z,100467.00
2023-01-29T10:24:22.675Z,100459.00
2023-01-29T10:25:22.647Z,100457.00
2023-01-29T10:26:22.657Z,100454.00
2023-01-29T10:27:22.678Z,100452.00
2023-01-29T10:28:22.666Z,100447.00
2023-01-29T10:29:22.660Z,100443.00
2023-01-29T10:30:22.645Z,100437.00
2023-01-29T10:31:22.817Z,100433.00
2023-01-29T10:32:22.707Z,100426.00
2023-01-29T10:33:22.683Z,100419.00
2023-01-29T10:34:22.690Z,100419.00
2023-01-29T10:35:22.679Z,100409.00
2023-01-29T10:36:22.668Z,100405.00
2023-01-29T10:37:22.686Z,100404.00
2023-01-29T10:38:22.709Z,100402.00
2023-01-29T10:39:22.769Z,100398.00
2023-01-29T10:40:22.787Z,100399.00
2023-01-29T10:41:22.772Z,100403.00
2023-01-29T10:42:22.775Z,100401.00
2023-01-29T10:43:22.773Z,100401.00
2023-01-29T10:44:22.807Z,100399.00
2023-01-29T10:45:22.833Z,100398.00
2023-01-29T10:46:22.816Z,100396.00
2023-01-29T10:47:22.881Z,100399.00
2023-01-29T10:48:22.831Z,100400.00
2023-01-29T10:49:22.866Z,100405.00
2023-01-29T10:50:22.916Z,100396.00
2023-01-29T10:51:22.893Z,100405.00
2023-01-29T10:52:22.905Z,100401.00
2023-01-29T10:53:22.932Z,100397.00
2023-01-29T10:54:22.953Z,100393.00
2023-01-29T10:55:23.010Z,100383.00
2023-01-29T10:56:23.656Z,100384.00
2023-01-29T10:57:22.983Z,100378.00
2023-01-29T10:58:23.011Z,100385.00
2023-01-29T10:59:23.039Z,100381.00
2023-01-29T11:00:23.062Z,100381.00
2023-01-29T11:01:23.173Z,100379.00
2023-01-29T11:02:23.157Z,100379.00
2023-01-29T11:03:27.871Z,100377.00
2023-01-29T11:04:23.162Z,100377.00
2023-01-29T11:05:23.140Z,100370.00
2023-01-29T11:06:23.134Z,100371.00
2023-01-29T11:07:23.159Z,100366.00
2023-01-29T11:08:23.153Z,100369.00
2023-01-29T11:09:23.172Z,100364.00
2023-01-29T11:10:23.199Z,100365.00
2023-01-29T11:11:23.230Z,100357.00
2023-01-29T11:12:24.021Z,100352.00
2023-01-29T11:13:23.248Z,100357.00
2023-01-29T11:14:23.231Z,100358.00
2023-01-29T11:15:23.266Z,100361.00
2023-01-29T11:16:23.295Z,100361.00
2023-01-29T11:17:23.388Z,100363.00
2023-01-29T11:18:23.335Z,100361.00
2023-01-29T11:19:23.357Z,100362.00
2023-01-29T11:20:23.377Z,100361.00
2023-01-29T11:21:23.386Z,100363.00
2023-01-29T11:22:23.374Z,100352.00
2023-01-29T11:23:23.405Z,100352.00
2023-01-29T11:24:23.442Z,100346.00